Flight Track Log - Related Links

Times and Time Zones

All times are in EDT time to prevent confusion due to time zone crossing. See the AAL1459 flight status page for this flight to view local times or setup timezone preferences in your user account.

Time Position Orientation Groundspeed Altitude Reporting Facility
EDT Latitude Longitude Course Direction KTS MPH feet Rate Location/Type
Fri 06:27:57 PM 41.9980 -87.9400 320° Northwest 175 201 1,700  Level FlightAware ADS-B
Fri 06:28:27 PM 42.0220 -87.9610 327° Northwest 220 253 2,400 1,200 Climbing FlightAware ADS-B
Fri 06:28:42 PM 42.0350 -87.9730 326° Northwest 247 284 2,600 1,650 Climbing FlightAware ADS-B
Fri 06:29:07 PM 42.0610 -87.9960 327° Northwest 272 313 3,500 2,073 Climbing FlightAware ADS-B
Fri 06:29:37 PM 42.0890 -88.0210 326° Northwest 281 323 4,500 2,073 Climbing FlightAware ADS-B
Fri 06:30:02 PM 42.1180 -88.0470 326° Northwest 282 325 5,400 2,550 Climbing FlightAware ADS-B
Fri 06:30:17 PM 42.1340 -88.0630 323° Northwest 282 325 6,200 3,400 Climbing FlightAware ADS-B
Fri 06:30:32 PM 42.1450 -88.0880 301° West 282 325 7,100 3,800 Climbing FlightAware ADS-B
Fri 06:30:47 PM 42.1480 -88.1150 279° West 275 316 8,100 3,200 Climbing FlightAware ADS-B
Fri 06:31:02 PM 42.1480 -88.1380 270° West 278 320 8,700 2,836 Climbing FlightAware ADS-B
Fri 06:31:42 PM 42.1480 -88.2070 270° West 285 328 10,700 2,965 Climbing FlightAware ADS-B
Fri 06:32:27 PM 42.1460 -88.2920 268° West 294 338 12,900 2,400 Climbing FlightAware ADS-B
Fri 06:33:07 PM 42.1450 -88.3720 269° West 326 375 14,100 2,047 Climbing FlightAware ADS-B
Fri 06:33:52 PM 42.1430 -88.4620 268° West 337 388 15,800 2,329 Climbing FlightAware ADS-B
Fri 06:34:32 PM 42.1380 -88.5490 266° West 345 397 17,400 2,100 Climbing FlightAware ADS-B
Fri 06:35:12 PM 42.1310 -88.6340 264° West 364 419 18,600 1,976 Climbing FlightAware ADS-B
Fri 06:35:57 PM 42.1210 -88.7410 263° West 377 434 20,200 2,118 Climbing FlightAware ADS-B
Fri 06:36:37 PM 42.1120 -88.8340 263° West 381 438 21,600 2,100 Climbing FlightAware ADS-B
Fri 06:37:17 PM 42.1030 -88.9280 263° West 386 444 23,000 1,976 Climbing FlightAware ADS-B
Fri 06:38:02 PM 42.0940 -89.0380 264° West 390 449 24,400 1,765 Climbing FlightAware ADS-B
Fri 06:38:42 PM 42.0860 -89.1300 263° West 394 453 25,500 1,341 Climbing FlightAware ADS-B
Fri 06:39:27 PM 42.0750 -89.2460 263° West 411 473 26,300 1,059 Climbing FlightAware ADS-B
Fri 06:40:07 PM 42.0660 -89.3480 263° West 425 489 27,000 1,125 Climbing FlightAware ADS-B
Fri 06:40:47 PM 42.0590 -89.4550 265° West 434 499 27,800 1,200 Climbing FlightAware ADS-B
Fri 06:41:32 PM 42.0570 -89.5750 269° West 440 506 28,700 1,271 Climbing FlightAware ADS-B
Fri 06:42:12 PM 42.0560 -89.6830 269° West 442 509 29,600 1,200 Climbing FlightAware ADS-B
Fri 06:42:52 PM 42.0540 -89.7930 269° West 446 513 30,300 1,059 Climbing FlightAware ADS-B
Fri 06:43:37 PM 42.0530 -89.9230 269° West 452 520 31,100 1,129 Climbing FlightAware ADS-B
Fri 06:44:17 PM 42.0510 -90.0360 269° West 452 520 31,900 1,129 Climbing FlightAware ADS-B
Fri 06:45:02 PM 42.0490 -90.1580 269° West 453 521 32,700 1,050 Climbing FlightAware ADS-B
Fri 06:45:37 PM 42.0470 -90.2510 268° West 454 522 33,300 988 Climbing FlightAware ADS-B
Fri 06:46:27 PM 42.0500 -90.3990 272° West 454 522 34,100 1,000 Climbing FlightAware ADS-B
Fri 06:47:07 PM 42.0560 -90.5090 274° West 451 519 34,800 1,050 Climbing FlightAware ADS-B
Fri 06:47:47 PM 42.0630 -90.6210 275° West 450 518 35,500 900 Climbing FlightAware ADS-B
Fri 06:48:27 PM 42.0680 -90.7260 274° West 447 514 36,000 333 Climbing FlightAware ADS-B
Fri 06:49:17 PM 42.0750 -90.8700 274° West 444 511 36,000  Level FlightAware ADS-B
Fri 06:49:52 PM 42.0800 -90.9660 274° West 444 511 36,000  Level FlightAware ADS-B
Fri 06:50:42 PM 42.0870 -91.1050 274° West 441 507 36,000  Level FlightAware ADS-B
Fri 06:51:22 PM 42.0920 -91.2100 274° West 436 502 36,000  Level FlightAware ADS-B
Fri 06:52:02 PM 42.0980 -91.3240 274° West 434 499 36,000  Level FlightAware ADS-B
Fri 06:52:47 PM 42.1030 -91.4430 273° West 432 497 36,000  Level FlightAware ADS-B
Fri 06:53:27 PM 42.1080 -91.5470 274° West 431 496 36,000  Level FlightAware ADS-B
Fri 06:54:07 PM 42.1130 -91.6530 274° West 429 494 36,000  Level FlightAware ADS-B
Fri 06:54:47 PM 42.1180 -91.7630 274° West 427 491 36,000  Level FlightAware ADS-B
Fri 06:55:32 PM 42.1230 -91.8800 273° West 426 490 36,000  Level FlightAware ADS-B
Fri 06:56:12 PM 42.1280 -91.9910 274° West 429 494 36,000  Level FlightAware ADS-B
Fri 06:56:57 PM 42.1320 -92.1040 273° West 430 495 36,000  Level FlightAware ADS-B
Fri 06:57:37 PM 42.1370 -92.2150 274° West 428 493 36,000  Level FlightAware ADS-B
Fri 06:58:22 PM 42.1420 -92.3350 273° West 429 494 36,000  Level FlightAware ADS-B
Fri 06:59:02 PM 42.1460 -92.4430 273° West 429 494 36,000  Level FlightAware ADS-B
Fri 06:59:47 PM 42.1500 -92.5550 273° West 429 494 36,000  Level FlightAware ADS-B
Fri 07:00:27 PM 42.1540 -92.6670 273° West 430 495 36,000  Level FlightAware ADS-B
Fri 07:01:07 PM 42.1580 -92.7750 273° West 431 496 36,000  Level FlightAware ADS-B
Fri 07:01:52 PM 42.1620 -92.8950 273° West 432 497 36,000  Level FlightAware ADS-B
Fri 07:02:37 PM 42.1660 -93.0110 273° West 432 497 36,000  Level FlightAware ADS-B
Fri 07:03:17 PM 42.1690 -93.1220 272° West 433 498 36,000  Level FlightAware ADS-B
Fri 07:03:57 PM 42.1730 -93.2320 273° West 433 498 36,000  Level FlightAware ADS-B
Fri 07:04:42 PM 42.1760 -93.3500 272° West 433 498 36,000  Level FlightAware ADS-B
Fri 07:05:22 PM 42.1800 -93.4620 273° West 434 499 36,000  Level FlightAware ADS-B
Fri 07:06:07 PM 42.1830 -93.5810 272° West 434 499 36,000  Level FlightAware ADS-B
Fri 07:06:47 PM 42.1860 -93.6890 272° West 433 498 36,000  Level FlightAware ADS-B
Fri 07:07:27 PM 42.1890 -93.7980 272° West 433 498 36,000  Level FlightAware ADS-B
Fri 07:08:12 PM 42.1920 -93.9200 272° West 433 498 36,000  Level FlightAware ADS-B
Fri 07:08:52 PM 42.1950 -94.0270 272° West 433 498 36,000  Level FlightAware ADS-B
Fri 07:09:32 PM 42.1970 -94.1340 271° West 433 498 36,000  Level FlightAware ADS-B
Fri 07:10:17 PM 42.2000 -94.2520 272° West 432 497 36,000  Level FlightAware ADS-B
Fri 07:10:57 PM 42.2020 -94.3630 271° West 432 497 36,000  Level FlightAware ADS-B
Fri 07:11:42 PM 42.2050 -94.4850 272° West 433 498 36,000  Level FlightAware ADS-B
Fri 07:12:22 PM 42.2070 -94.5920 271° West 437 503 36,000  Level FlightAware ADS-B
Fri 07:13:02 PM 42.2090 -94.6970 272° West 438 504 36,000  Level FlightAware ADS-B
Fri 07:13:47 PM 42.2110 -94.8220 271° West 439 505 36,000  Level FlightAware ADS-B
Fri 07:14:27 PM 42.2130 -94.9300 271° West 439 505 36,000  Level FlightAware ADS-B
Fri 07:15:12 PM 42.2150 -95.0550 271° West 440 506 36,000  Level FlightAware ADS-B
Fri 07:15:52 PM 42.2160 -95.1660 271° West 439 505 36,000  Level FlightAware ADS-B
Fri 07:16:37 PM 42.2180 -95.2860 271° West 440 506 36,000  Level FlightAware ADS-B
Fri 07:17:17 PM 42.2190 -95.3880 271° West 441 507 36,000  Level FlightAware ADS-B
Fri 07:17:57 PM 42.2210 -95.5070 271° West 441 507 36,000  Level FlightAware ADS-B
Fri 07:18:42 PM 42.2220 -95.6310 271° West 441 507 36,000  Level FlightAware ADS-B
Fri 07:19:22 PM 42.2230 -95.7400 271° West 439 505 36,000  Level FlightAware ADS-B
Fri 07:20:07 PM 42.2240 -95.8630 271° West 439 505 36,000  Level FlightAware ADS-B
Fri 07:20:47 PM 42.2250 -95.9680 271° West 439 505 36,000  Level FlightAware ADS-B
Fri 07:21:27 PM 42.2250 -96.0660 270° West 439 505 36,000  Level FlightAware ADS-B
Fri 07:22:12 PM 42.2260 -96.2000 271° West 436 502 36,000  Level FlightAware ADS-B
Fri 07:23:07 PM 42.2270 -96.3520 271° West 433 498 36,000 253 Level FlightAware ADS-B
Fri 07:23:47 PM 42.2280 -96.4590 271° West 432 497 36,400 720 Climbing FlightAware ADS-B
Fri 07:24:22 PM 42.2280 -96.5520 270° West 430 495 36,900 750 Climbing FlightAware ADS-B
Fri 07:25:07 PM 42.2280 -96.6700 270° West 430 495 37,400 695 Climbing FlightAware ADS-B
Fri 07:25:57 PM 42.2280 -96.8090 270° West 432 497 38,000 400 Climbing FlightAware ADS-B
Fri 07:26:37 PM 42.2280 -96.9120 270° West 432 497 38,000  Level FlightAware ADS-B
Fri 07:27:17 PM 42.2270 -97.0100 269° West 432 497 38,000  Level FlightAware ADS-B
Fri 07:27:57 PM 42.2260 -97.1020 269° West 432 497 38,000  Level FlightAware ADS-B
Fri 07:28:37 PM 42.2240 -97.1930 268° West 432 497 38,000  Level FlightAware ADS-B
Fri 07:29:17 PM 42.2230 -97.2850 269° West 432 497 38,000  Level FlightAware ADS-B
Fri 07:30:07 PM 42.2220 -97.4000 269° West 432 497 38,000  Level FlightAware ADS-B
Fri 07:30:47 PM 42.2210 -97.4920 269° West 432 497 38,000  Level FlightAware ADS-B
Fri 07:31:27 PM 42.2190 -97.5830 268° West 432 497 38,000  Level FlightAware ADS-B
Fri 07:32:07 PM 42.2180 -97.6750 269° West 432 497 38,000  Level FlightAware ADS-B
Fri 07:32:57 PM 42.2170 -97.7900 269° West 432 497 38,000  Level FlightAware ADS-B
Fri 07:33:37 PM 42.2160 -97.8810 269° West 432 497 38,000  Level FlightAware ADS-B
Fri 07:34:17 PM 42.2140 -97.9730 268° West 432 497 38,000  Level FlightAware ADS-B
Fri 07:34:57 PM 42.2130 -98.0650 269° West 432 497 38,000  Level FlightAware ADS-B
Fri 07:35:37 PM 42.2120 -98.1570 269° West 432 497 38,000  Level FlightAware ADS-B
Fri 07:36:27 PM 42.2100 -98.2710 269° West 432 497 38,000  Level FlightAware ADS-B
Fri 07:36:48 PM 42.2150 -98.5181 269° West 426 490 38,000  Level Denver Center
Fri 07:37:50 PM 42.2122 -98.6753 269° West 423 487 38,000  Level Denver Center
Fri 07:38:49 PM 42.2061 -98.8333 267° West 424 488 38,000  Level Minneapolis Center
Fri 07:39:51 PM 42.1769 -98.9842 255° West 417 480 38,000  Level Minneapolis Center
Fri 07:40:53 PM 42.1353 -99.1572 252° West 410 472 38,000  Level Minneapolis Center
Fri 07:41:58 PM 42.1008 -99.3014 252° West 407 468 38,000  Level Denver Center
Fri 07:43:00 PM 42.0678 -99.4469 253° West 408 470 38,000  Level Denver Center
Fri 07:44:02 PM 42.0342 -99.5933 253° West 410 472 38,000  Level Denver Center
Fri 07:45:04 PM 42.0017 -99.7461 254° West 409 471 38,000  Level Denver Center
Fri 07:46:06 PM 41.9661 -99.9103 254° West 411 473 38,000  Level Denver Center
Fri 07:47:08 PM 41.9367 -100.0528 255° West 414 476 38,000  Level Denver Center
Fri 07:48:10 PM 41.8911 -100.2114 249° West 413 475 38,000  Level Denver Center
Fri 07:54:22 PM 41.5290 -101.0650 249° West 422 486 38,000  Level FlightAware ADS-B
Fri 07:54:48 PM 41.5020 -101.1280 240° Southwest 424 488 38,000  Level FlightAware ADS-B
Fri 07:55:19 PM 41.4711 -101.2000 240° Southwest 424 488 38,000  Level FlightAware ADS-B
Fri 07:55:50 PM 41.4413 -101.2690 240° Southwest 427 491 38,000  Level FlightAware ADS-B
Fri 07:56:10 PM 41.4213 -101.3140 239° Southwest 431 496 38,000  Level FlightAware ADS-B
Fri 07:56:27 PM 41.4020 -101.3520 236° Southwest 433 498 38,000  Level FlightAware ADS-B
Fri 07:56:41 PM 41.3839 -101.3830 232° Southwest 436 502 38,000  Level FlightAware ADS-B
Fri 07:56:52 PM 41.3686 -101.4040 226° Southwest 437 503 38,000  Level FlightAware ADS-B
Fri 07:57:23 PM 41.3241 -101.4610 224° Southwest 438 504 38,000  Level FlightAware ADS-B
Fri 07:57:53 PM 41.2800 -101.5160 223° Southwest 440 506 38,000  Level FlightAware ADS-B
Fri 07:58:32 PM 41.2260 -101.5860 224° Southwest 440 506 38,000  Level FlightAware ADS-B
Fri 07:59:05 PM 41.1751 -101.6510 224° Southwest 441 507 38,000  Level FlightAware ADS-B
Fri 07:59:36 PM 41.1298 -101.7100 224° Southwest 442 509 38,000  Level FlightAware ADS-B
Fri 08:00:06 PM 41.0853 -101.7660 223° Southwest 443 510 38,000  Level FlightAware ADS-B
Fri 08:00:21 PM 41.0636 -101.7950 225° Southwest 441 507 38,000  Level FlightAware ADS-B
Fri 08:00:52 PM 41.0229 -101.8570 229° Southwest 439 505 38,000  Level FlightAware ADS-B
Fri 08:01:22 PM 40.9839 -101.9190 230° Southwest 428 493 38,000  Level FlightAware ADS-B
Fri 08:01:53 PM 40.9449 -101.9810 230° Southwest 425 489 38,000  Level FlightAware ADS-B
Fri 08:02:23 PM 40.9073 -102.0420 231° Southwest 424 488 38,000  Level FlightAware ADS-B
Fri 08:02:36 PM 40.8921 -102.0670 231° Southwest 423 487 38,000  Level FlightAware ADS-B
Fri 08:02:48 PM 40.8788 -102.0930 236° Southwest 422 486 38,000  Level FlightAware ADS-B
Fri 08:02:58 PM 40.8692 -102.1170 242° Southwest 419 482 38,000  Level FlightAware ADS-B
Fri 08:03:10 PM 40.8606 -102.1430 246° West 417 480 38,000  Level FlightAware ADS-B
Fri 08:03:34 PM 40.8448 -102.2010 250° West 417 480 38,000  Level FlightAware ADS-B
Fri 08:03:51 PM 40.8346 -102.2430 252° West 416 479 38,000  Level FlightAware ADS-B
Fri 08:04:02 PM 40.8307 -102.2690 259° West 415 478 38,000  Level FlightAware ADS-B
Fri 08:04:17 PM 40.8284 -102.3070 265° West 415 478 38,000  Level FlightAware ADS-B
Fri 08:04:47 PM 40.8304 -102.3830 272° West 416 479 38,000  Level FlightAware ADS-B
Fri 08:05:17 PM 40.8325 -102.4600 272° West 416 479 38,000  Level FlightAware ADS-B
Fri 08:05:48 PM 40.8344 -102.5370 272° West 418 481 38,000  Level FlightAware ADS-B
Fri 08:06:18 PM 40.8365 -102.6160 272° West 422 486 38,000  Level FlightAware ADS-B
Fri 08:06:49 PM 40.8385 -102.6930 272° West 424 488 38,000  Level FlightAware ADS-B
Fri 08:07:20 PM 40.8405 -102.7730 272° West 422 486 38,000  Level FlightAware ADS-B
Fri 08:07:51 PM 40.8423 -102.8550 272° West 424 488 38,000  Level FlightAware ADS-B
Fri 08:08:22 PM 40.8441 -102.9330 272° West 425 489 38,000  Level FlightAware ADS-B
Fri 08:08:52 PM 40.8458 -103.0120 272° West 426 490 38,000  Level FlightAware ADS-B
Fri 08:09:25 PM 40.8477 -103.0980 272° West 427 491 38,000  Level FlightAware ADS-B
Fri 08:09:57 PM 40.8493 -103.1800 272° West 428 493 38,000  Level FlightAware ADS-B
Fri 08:10:27 PM 40.8510 -103.2590 272° West 428 493 38,000  Level FlightAware ADS-B
Fri 08:10:58 PM 40.8525 -103.3380 271° West 428 493 38,000  Level FlightAware ADS-B
Fri 08:11:28 PM 40.8539 -103.4170 271° West 428 493 38,000  Level FlightAware ADS-B
Fri 08:11:58 PM 40.8555 -103.4970 272° West 428 493 38,000  Level FlightAware ADS-B
Fri 08:12:28 PM 40.8568 -103.5750 271° West 427 491 38,000  Level FlightAware ADS-B
Fri 08:12:58 PM 40.8581 -103.6530 271° West 421 484 38,000  Level FlightAware ADS-B
Fri 08:13:29 PM 40.8592 -103.7300 271° West 416 479 38,000  Level FlightAware ADS-B
Fri 08:13:59 PM 40.8603 -103.8060 271° West 413 475 38,000  Level FlightAware ADS-B
Fri 08:14:29 PM 40.8613 -103.8830 271° West 414 476 38,000  Level FlightAware ADS-B
Fri 08:15:00 PM 40.8624 -103.9590 271° West 413 475 38,000  Level FlightAware ADS-B
Fri 08:15:30 PM 40.8634 -104.0350 271° West 413 475 38,000  Level FlightAware ADS-B
Fri 08:16:00 PM 40.8642 -104.1110 271° West 415 478 38,000  Level FlightAware ADS-B
Fri 08:16:30 PM 40.8650 -104.1880 271° West 416 479 38,000  Level FlightAware ADS-B
Fri 08:17:01 PM 40.8659 -104.2650 271° West 418 481 38,000  Level FlightAware ADS-B
Fri 08:17:31 PM 40.8667 -104.3420 271° West 417 480 38,000  Level FlightAware ADS-B
Fri 08:18:02 PM 40.8674 -104.4200 271° West 419 482 38,000  Level FlightAware ADS-B
Fri 08:18:32 PM 40.8681 -104.4970 271° West 421 484 38,000  Level FlightAware ADS-B
Fri 08:19:04 PM 40.8688 -104.5790 271° West 422 486 38,000  Level FlightAware ADS-B
Fri 08:19:34 PM 40.8694 -104.6570 271° West 423 487 38,000  Level FlightAware ADS-B
Fri 08:20:05 PM 40.8700 -104.7360 271° West 427 491 38,000  Level FlightAware ADS-B
Fri 08:20:35 PM 40.8705 -104.8140 271° West 429 494 38,000  Level FlightAware ADS-B
Fri 08:21:05 PM 40.8708 -104.8940 270° West 430 495 38,000  Level FlightAware ADS-B
Fri 08:21:36 PM 40.8712 -104.9740 270° West 429 494 38,000  Level FlightAware ADS-B
Fri 08:22:06 PM 40.8715 -105.0520 270° West 419 482 38,000  Level FlightAware ADS-B
Fri 08:22:38 PM 40.8717 -105.1330 270° West 410 472 38,000  Level FlightAware ADS-B
Fri 08:23:16 PM 40.8719 -105.2280 270° West 411 473 38,000  Level FlightAware ADS-B
Fri 08:23:51 PM 40.8720 -105.3150 270° West 412 474 38,000  Level FlightAware ADS-B
Fri 08:24:22 PM 40.8720 -105.3780 270° West 412 474 38,000  Level FlightAware ADS-B
Fri 08:24:36 PM 40.8721 -105.4270 270° West 411 473 38,000  Level FlightAware ADS-B
Fri 08:25:07 PM 40.8720 -105.4970 270° West 413 475 38,000  Level FlightAware ADS-B
Fri 08:25:22 PM 40.8722 -105.5430 270° West 412 474 38,000  Level FlightAware ADS-B
Fri 08:25:54 PM 40.8722 -105.6250 270° West 410 472 38,000  Level FlightAware ADS-B
Fri 08:26:32 PM 40.8720 -105.7030 270° West 406 467 38,000  Level FlightAware ADS-B
Fri 08:27:17 PM 40.8720 -105.8210 270° West 406 467 38,000  Level FlightAware ADS-B
Fri 08:27:57 PM 40.8710 -105.9220 269° West 406 467 38,000  Level FlightAware ADS-B
Fri 08:28:37 PM 40.8710 -106.0240 270° West 408 470 38,000  Level FlightAware ADS-B
Fri 08:29:17 PM 40.8700 -106.1170 269° West 410 472 38,000  Level FlightAware ADS-B
Fri 08:30:07 PM 40.8690 -106.2490 269° West 410 472 38,000  Level FlightAware ADS-B
Fri 08:30:47 PM 40.8690 -106.3460 270° West 412 474 38,000  Level FlightAware ADS-B
Fri 08:31:32 PM 40.8680 -106.4580 269° West 413 475 38,000  Level FlightAware ADS-B
Fri 08:32:12 PM 40.8670 -106.5600 269° West 415 478 38,000  Level FlightAware ADS-B
Fri 08:33:02 PM 40.8660 -106.6810 269° West 416 479 38,000  Level FlightAware ADS-B
Fri 08:33:52 PM 40.8640 -106.7890 269° West 416 479 38,000  Level FlightAware ADS-B
Fri 08:34:32 PM 40.8630 -106.8760 269° West 416 479 38,000  Level FlightAware ADS-B
Fri 08:35:12 PM 40.8620 -106.9620 269° West 416 479 38,000  Level FlightAware ADS-B
Fri 08:35:52 PM 40.8610 -107.0490 269° West 416 479 38,000  Level FlightAware ADS-B
Fri 08:36:32 PM 40.8600 -107.1350 269° West 416 479 38,000  Level FlightAware ADS-B
Fri 08:37:22 PM 40.8580 -107.2430 269° West 416 479 38,000  Level FlightAware ADS-B
Fri 08:38:02 PM 40.8570 -107.3300 269° West 416 479 38,000  Level FlightAware ADS-B
Fri 08:38:42 PM 40.8560 -107.4160 269° West 416 479 38,000  Level FlightAware ADS-B
Fri 08:39:22 PM 40.8550 -107.5030 269° West 416 479 38,000  Level FlightAware ADS-B
Fri 08:40:02 PM 40.8540 -107.5890 269° West 416 479 38,000  Level FlightAware ADS-B
Fri 08:40:52 PM 40.8520 -107.6970 269° West 416 479 38,000  Level FlightAware ADS-B
Fri 08:41:32 PM 40.8510 -107.7840 269° West 416 479 38,000  Level FlightAware ADS-B
Fri 08:42:12 PM 40.8500 -107.8700 269° West 416 479 38,000  Level FlightAware ADS-B
Fri 08:42:55 PM 40.8400 -108.1933 269° West 410 472 38,000  Level Salt Lake Center
Fri 08:43:53 PM 40.8364 -108.3353 268° West 407 468 38,000  Level Denver Center
Fri 08:44:55 PM 40.8336 -108.4808 269° West 412 474 38,000  Level Denver Center
Fri 08:45:57 PM 40.8286 -108.6478 268° West 408 470 38,000  Level Denver Center
Fri 08:46:59 PM 40.8236 -108.7922 267° West 409 471 38,000  Level Denver Center
Fri 08:48:01 PM 40.8197 -108.9383 268° West 411 473 38,000  Level Denver Center
Fri 08:49:03 PM 40.8147 -109.1044 268° West 406 467 38,000  Level Denver Center
Fri 08:50:06 PM 40.8100 -109.2597 268° West 405 466 38,000  Level Salt Lake Center
Fri 08:51:08 PM 40.8050 -109.4028 267° West 408 470 38,000  Level Salt Lake Center
Fri 08:52:10 PM 40.7992 -109.5675 267° West 405 466 38,000  Level Salt Lake Center
Fri 08:53:11 PM 40.7947 -109.7081 268° West 402 463 38,000  Level Salt Lake Center
Fri 08:54:13 PM 40.7886 -109.8717 267° West 400 460 38,000  Level Salt Lake Center
Fri 08:55:15 PM 40.7828 -110.0122 267° West 402 463 38,000  Level Salt Lake Center
Fri 08:56:16 PM 40.7756 -110.1764 267° West 402 463 38,000  Level Salt Lake Center
Fri 09:01:37 PM 40.7420 -110.9610 267° West 405 466 38,000  Level FlightAware ADS-B
Fri 09:02:17 PM 40.7370 -111.0610 266° West 407 468 38,000  Level FlightAware ADS-B
Fri 09:03:12 PM 40.7310 -111.1940 267° West 410 472 38,000  Level FlightAware ADS-B
Fri 09:03:57 PM 40.7250 -111.3080 266° West 410 472 38,000  Level FlightAware ADS-B
Fri 09:04:32 PM 40.7210 -111.3900 266° West 409 471 38,000  Level FlightAware ADS-B
Fri 09:05:22 PM 40.7140 -111.5110 266° West 412 474 38,000  Level FlightAware ADS-B
Fri 09:06:02 PM 40.7090 -111.6210 267° West 416 479 38,000  Level FlightAware ADS-B
Fri 09:06:42 PM 40.7140 -111.7220 274° West 421 484 38,000  Level FlightAware ADS-B
Fri 09:07:27 PM 40.7200 -111.8380 274° West 424 488 38,000  Level FlightAware ADS-B
Fri 09:08:07 PM 40.7250 -111.9400 274° West 424 488 38,000  Level FlightAware ADS-B
Fri 09:08:52 PM 40.7400 -112.0590 279° West 436 502 38,000  Level FlightAware ADS-B
Fri 09:09:32 PM 40.7530 -112.1620 279° West 439 505 38,000  Level FlightAware ADS-B
Fri 09:10:12 PM 40.7640 -112.2700 278° West 441 507 38,000  Level FlightAware ADS-B
Fri 09:10:57 PM 40.7720 -112.3900 275° West 444 511 38,000  Level FlightAware ADS-B
Fri 09:11:37 PM 40.7800 -112.4980 276° West 445 512 38,000  Level FlightAware ADS-B
Fri 09:12:17 PM 40.7860 -112.5950 275° West 444 511 38,000  Level FlightAware ADS-B
Fri 09:12:52 PM 40.7930 -112.6900 276° West 446 513 38,000  Level FlightAware ADS-B
Fri 09:13:37 PM 40.8010 -112.8070 275° West 446 513 38,000  Level FlightAware ADS-B
Fri 09:14:27 PM 40.8080 -112.9230 275° West 446 513 38,000  Level FlightAware ADS-B
Fri 09:15:07 PM 40.8140 -113.0150 275° West 446 513 38,000  Level FlightAware ADS-B
Fri 09:15:47 PM 40.8210 -113.1070 276° West 446 513 38,000  Level FlightAware ADS-B
Fri 09:16:27 PM 40.8270 -113.2000 275° West 446 513 38,000  Level FlightAware ADS-B
Fri 09:17:07 PM 40.8330 -113.2920 275° West 446 513 38,000  Level FlightAware ADS-B
Fri 09:17:57 PM 40.8400 -113.4080 275° West 446 513 38,000  Level FlightAware ADS-B
Fri 09:18:37 PM 40.8470 -113.5000 276° West 446 513 38,000  Level FlightAware ADS-B
Fri 09:19:17 PM 40.8530 -113.5920 275° West 446 513 38,000  Level FlightAware ADS-B
Fri 09:19:57 PM 40.8590 -113.6850 275° West 446 513 38,000  Level FlightAware ADS-B
Fri 09:20:37 PM 40.8650 -113.7770 275° West 446 513 38,000  Level FlightAware ADS-B
Fri 09:21:27 PM 40.8720 -113.8930 275° West 446 513 38,000  Level FlightAware ADS-B
Fri 09:22:07 PM 40.8790 -113.9850 276° West 446 513 38,000  Level FlightAware ADS-B
Fri 09:22:47 PM 40.8850 -114.0780 275° West 446 513 38,000  Level FlightAware ADS-B
Fri 09:23:58 PM 40.7086 -114.4564 275° West 432 497 38,000  Level Salt Lake Center
Fri 09:25:00 PM 40.6889 -114.6117 261° West 430 495 38,000  Level Salt Lake Center
Fri 09:26:01 PM 40.6689 -114.7667 260° West 430 495 38,000  Level Salt Lake Center
Fri 09:27:03 PM 40.6506 -114.9128 261° West 432 497 38,000  Level Salt Lake Center
Fri 09:28:04 PM 40.6283 -115.0875 261° West 433 498 38,000  Level Salt Lake Center
Fri 09:29:06 PM 40.6064 -115.2358 259° West 431 496 38,000  Level Salt Lake Center
Fri 09:30:07 PM 40.5842 -115.4072 260° West 425 489 38,000  Level Salt Lake Center
Fri 09:31:09 PM 40.5639 -115.5525 260° West 423 487 38,000 48 Level Salt Lake Center
Fri 09:32:12 PM 40.5428 -115.7225 261° West 422 486 38,100  Climbing Salt Lake Center
Fri 09:33:12 PM 40.5242 -115.8706 261° West 426 490 38,000 -50 Descending Salt Lake Center
Fri 09:34:13 PM 40.5044 -116.0156 260° West 424 488 38,000  Level Salt Lake Center
Fri 09:35:15 PM 40.4806 -116.1856 260° West 423 487 38,000  Level Salt Lake Center
Fri 09:36:17 PM 40.4611 -116.3311 260° West 424 488 38,000  Level Salt Lake Center
Fri 09:37:18 PM 40.4372 -116.5019 260° West 425 489 38,000  Level Salt Lake Center
Fri 09:38:20 PM 40.4167 -116.6497 260° West 429 494 38,000  Level Salt Lake Center
Fri 09:39:21 PM 40.3931 -116.8100 259° West 430 495 38,000  Level Salt Lake Center
Fri 09:40:23 PM 40.3697 -116.9633 259° West 430 495 38,000  Level Salt Lake Center
Fri 09:41:24 PM 40.3475 -117.1317 260° West 436 502 38,000 -390 Level Salt Lake Center
Fri 09:42:26 PM 40.3247 -117.2792 259° West 433 498 37,200 -927 Descending Salt Lake Center
Fri 09:43:27 PM 40.2989 -117.4542 259° West 437 503 36,100 -1,024 Descending Salt Lake Center
Fri 09:44:29 PM 40.2767 -117.6006 259° West 431 496 35,100 -927 Descending Salt Lake Center
Fri 09:45:30 PM 40.2544 -117.7489 259° West 433 498 34,200 -537 Descending Salt Lake Center
Fri 09:46:32 PM 40.2281 -117.9189 259° West 429 494 34,000 -115 Descending Salt Lake Center
Fri 09:47:14 PM 40.2144 -118.0131 259° West 427 491 34,000 -175 Level Oakland Center
Fri 09:48:15 PM 40.1908 -118.1636 258° West 424 488 33,700 -639 Descending Oakland Center
Fri 09:49:16 PM 40.1678 -118.3097 258° West 415 478 32,700 -1,220 Descending Oakland Center
Fri 09:50:18 PM 40.1397 -118.4878 258° West 419 482 31,200 -2,049 Descending Oakland Center
Fri 09:51:19 PM 40.0914 -118.6200 244° Southwest 416 479 28,500 -2,508 Descending Oakland Center
Fri 09:52:20 PM 40.0053 -118.7267 224° Southwest 425 489 26,100 -2,293 Descending Oakland Center
Fri 09:53:22 PM 39.9228 -118.8272 223° Southwest 413 475 23,800 -2,195 Descending Oakland Center
Fri 09:54:23 PM 39.8419 -118.9256 223° Southwest 401 461 21,600 -2,098 Descending Oakland Center
Fri 09:55:25 PM 39.7650 -119.0197 223° Southwest 387 445 19,500 -2,000 Descending Oakland Center
Fri 09:56:26 PM 39.6894 -119.1094 222° Southwest 374 430 17,500 -1,770 Descending Oakland Center
Fri 09:57:27 PM 39.6017 -119.2156 223° Southwest 363 418 15,900 -1,268 Descending Oakland Center
Fri 09:58:29 PM 39.5336 -119.2981 223° Southwest 344 396 14,900 -1,268 Descending Oakland Center
Fri 09:59:30 PM 39.4675 -119.3767 223° Southwest 328 377 13,300 -1,623 Descending Oakland Center
Fri 10:00:31 PM 39.4047 -119.4533 223° Southwest 317 365 11,600 -1,122 Descending Oakland Center
Fri 10:01:33 PM 39.3433 -119.5267 223° Southwest 308 354 11,000 -341 Descending Oakland Center
Fri 10:02:34 PM 39.2814 -119.5994 222° Southwest 305 351 10,900 -492 Descending Oakland Center
Fri 10:03:35 PM 39.2211 -119.6775 225° Southwest 306 352 10,000 -870 Descending Oakland Center
Fri 10:09:07 PM 39.4550 -119.7670 225° Southwest 171 197 5,200 -807 Descending FlightAware ADS-B
Fri 10:09:32 PM 39.4750 -119.7680 358° North 171 197 5,200  Level FlightAware ADS-B

Login

Don't have an account? Register now (free) for customized features, flight alerts, and more!